Aérodrome :
LOGIN :

S'inscrire | Disclaimer

   EN    FR    IT 

 










Légende :    VFR   VFR Marginal   IFR   IFR Intensif   IFR Très Intensif
Visi : 
Plafond : 
>= 8 km
>= 3000ft
5 à 8 km
1000 à 3000 ft
1500m à 5 km
500 à 1000 ft
800 à 1500m
200 à 500 ft
< 800m
< 200 ft
Symboles :   Orages  Brouillard  Fortes neiges  Fortes précipitations  Vent > 20 kt
SIGMETs :   Divers  Orages  Givrage  Turbulence  Onde Orograph.  Cendres Volcan.






- Altitude de l'aérodrome : 39 ft


ETNH - Hohn AB

DERNIER METAR :
  • 201420Z VRB02KT 2300 -RA BR OVC001 03/03 Q1018 RED RED BECMG YLO

METARs EXPIRÉS :
  • 201349Z 27002KT 1800 R26/4600U -RA BR OVC001 03/03 Q1018 RED RED BECMG YLO
  • 201320Z 27003KT 1200 R26/2400U -RA BR OVC001 03/03 Q1018 RED RED BECMG YLO
  • 201301Z 26002KT 0900 R26/1900U -RA FG VV000 03/03 Q1018 RED RED BECMG YLO
  • 201220Z VRB01KT 0600 R26/1400N -RA FG VV000 03/03 Q1019 RED RED BECMG YLO

TAF AMD TAF ETNH
Valide du 20 à 14h jusqu'au 21 à 00h UTC


201425Z 2014/2024 VRB02KT 1500 BR BKN001
TEMPO 2014/2022 VRB03KT 3000 -RADZ BKN003
TEMPO 2022/2106 VRB01KT 0500 FG VV001 BY ETGL



MET'MAP, la Météo Aéronautique d'un coup d'oeil ! - Copyright ORBIFLY Décembre 2007 - Disclaimer

ORBIFLY MET'MAP TEAM :

Programmation & Développement : Alexandra Zaïnal
Conception & Développement : Baudouin d'Aumeries
Co-Programmation & Développement : Marc-Olivier Méhu
Soutien technique & logistique : Manuel Goepfert

Contact : metmap@orbifly.com




SOURCES & CREDITS :

   NOAA